Time;durP1;ratioP1;P1;durP2;ratioP2;P2;SDS_P1;SDS_P2;PMS_P1;PMS_P2;Temp;Humidity;BMP_temperature;BMP_pressure;BME280_temperature;BME280_humidity;BME280_pressure;Samples;Min_cycle;Max_cycle;Signal;HPM_P1;HPM_P2
2021/07/21 00:00:21;;;;;;;15.45;10.15;;;;;;;;;;4959141;29;20059;-80
2021/07/21 00:02:48;;;;;;;17.20;9.82;;;;;;;;;;4958698;28;20051;-81
2021/07/21 00:05:18;;;;;;;17.75;10.90;;;;;;;;;;4957546;29;20093;-80
2021/07/21 00:07:45;;;;;;;17.08;10.18;;;;;;;;;;4957494;28;20083;-80
2021/07/21 00:10:15;;;;;;;14.88;9.82;;;;;;;;;;4957678;28;20047;-80
2021/07/21 00:15:30;;;;;;;14.52;9.32;;;;;;;;;;4976134;28;20612;-81
2021/07/21 00:18:01;;;;;;;14.77;9.75;;;;;;;;;;4976768;28;20054;-80
2021/07/21 00:20:30;;;;;;;26.30;11.13;;;;;;;;;;4976423;28;20078;-80
2021/07/21 00:22:57;;;;;;;14.75;9.82;;;;;;;;;;4975849;28;20473;-80
2021/07/21 00:25:23;;;;;;;17.85;10.57;;;;;;;;;;4976281;28;20496;-80
2021/07/21 00:27:51;;;;;;;15.40;10.00;;;;;;;;;;4980499;28;20055;-80
2021/07/21 00:30:20;;;;;;;15.93;10.43;;;;;;;;;;4976565;28;20114;-79
2021/07/21 00:32:47;;;;;;;16.65;11.25;;;;;;;;;;4976586;28;20110;-79
2021/07/21 00:35:16;;;;;;;15.57;10.93;;;;;;;;;;4975678;28;20110;-78
2021/07/21 00:37:43;;;;;;;15.30;9.85;;;;;;;;;;4976531;28;20074;-79
2021/07/21 00:40:13;;;;;;;17.80;11.35;;;;;;;;;;4986141;28;20042;-77
2021/07/21 00:42:40;;;;;;;17.35;10.73;;;;;;;;;;4991657;28;20042;-78
2021/07/21 00:45:09;;;;;;;15.57;11.05;;;;;;;;;;4991143;28;20047;-78
2021/07/21 00:47:36;;;;;;;17.80;10.60;;;;;;;;;;4990653;28;20061;-78
2021/07/21 00:50:04;;;;;;;14.15;10.38;;;;;;;;;;4990212;28;20078;-79
2021/07/21 00:52:33;;;;;;;17.02;11.43;;;;;;;;;;4978353;28;20042;-80
2021/07/21 00:55:00;;;;;;;16.40;10.77;;;;;;;;;;4976654;28;20069;-79
2021/07/21 00:57:26;;;;;;;17.73;10.73;;;;;;;;;;4968486;23;20070;-74
2021/07/21 00:59:55;;;;;;;17.05;11.18;;;;;;;;;;4955246;28;20087;-74
2021/07/21 01:02:23;;;;;;;17.17;11.43;;;;;;;;;;4955025;28;20082;-75
2021/07/21 01:04:50;;;;;;;17.42;10.50;;;;;;;;;;4954792;28;20075;-75
2021/07/21 01:07:17;;;;;;;15.55;10.60;;;;;;;;;;4955165;28;20086;-75
2021/07/21 01:09:46;;;;;;;16.40;9.80;;;;;;;;;;4955128;28;20115;-75
2021/07/21 01:12:21;;;;;;;16.30;10.77;;;;;;;;;;4954947;28;20465;-75
2021/07/21 01:15:00;;;;;;;18.85;11.77;;;;;;;;;;4954618;28;20428;-74
2021/07/21 01:17:32;;;;;;;16.25;10.00;;;;;;;;;;4955091;28;20453;-74
2021/07/21 01:20:17;;;;;;;15.95;10.57;;;;;;;;;;4954897;28;20051;-75
2021/07/21 01:22:46;;;;;;;16.25;10.00;;;;;;;;;;4954647;28;20058;-75
2021/07/21 01:25:15;;;;;;;18.07;10.50;;;;;;;;;;4954016;28;20078;-74
2021/07/21 01:27:48;;;;;;;16.20;10.90;;;;;;;;;;4954349;28;20052;-74
2021/07/21 01:30:17;;;;;;;15.27;10.98;;;;;;;;;;4954798;28;20047;-74
2021/07/21 01:32:46;;;;;;;20.00;11.25;;;;;;;;;;4954550;28;20083;-74
2021/07/21 01:35:18;;;;;;;17.67;11.20;;;;;;;;;;4953749;28;20082;-74
2021/07/21 01:37:49;;;;;;;18.75;10.77;;;;;;;;;;4954320;28;20074;-74
2021/07/21 01:40:22;;;;;;;18.58;11.93;;;;;;;;;;4955150;28;20520;-75
2021/07/21 01:42:53;;;;;;;17.30;11.52;;;;;;;;;;4954574;28;20047;-74
2021/07/21 01:45:20;;;;;;;15.48;10.57;;;;;;;;;;4953864;28;20133;-74
2021/07/21 01:47:49;;;;;;;19.20;10.90;;;;;;;;;;4954169;28;20090;-74
2021/07/21 01:50:17;;;;;;;19.40;11.27;;;;;;;;;;4954227;28;20082;-74
2021/07/21 01:52:48;;;;;;;16.85;10.65;;;;;;;;;;4954027;28;20093;-74
2021/07/21 01:55:15;;;;;;;;;;;;;;;;;;4953875;28;20508;-75
2021/07/21 01:57:44;;;;;;;16.85;11.25;;;;;;;;;;4953793;28;19985;-75
2021/07/21 02:00:14;;;;;;;16.35;10.75;;;;;;;;;;4954131;28;20101;-75
2021/07/21 02:02:44;;;;;;;18.33;10.40;;;;;;;;;;4954123;28;20074;-75
2021/07/21 02:05:13;;;;;;;17.58;10.80;;;;;;;;;;4953824;28;20316;-76
2021/07/21 02:07:43;;;;;;;14.88;10.23;;;;;;;;;;4954098;29;20086;-75
2021/07/21 02:10:12;;;;;;;18.08;10.43;;;;;;;;;;4954139;29;20079;-75
2021/07/21 02:12:40;;;;;;;17.27;11.00;;;;;;;;;;4953886;29;20055;-76
2021/07/21 02:15:08;;;;;;;24.02;11.13;;;;;;;;;;4953272;29;20078;-75
2021/07/21 02:17:39;;;;;;;21.15;12.57;;;;;;;;;;4953708;29;20091;-75
2021/07/21 02:20:07;;;;;;;19.88;11.82;;;;;;;;;;4953913;29;20053;-75
2021/07/21 02:22:33;;;;;;;18.75;11.20;;;;;;;;;;4953925;29;20079;-75
2021/07/21 02:25:01;;;;;;;19.98;11.95;;;;;;;;;;4953259;29;20083;-75
2021/07/21 02:27:27;;;;;;;19.02;11.95;;;;;;;;;;4953843;29;20477;-76
2021/07/21 02:29:54;;;;;;;20.40;13.05;;;;;;;;;;4953827;29;20171;-75
2021/07/21 02:32:26;;;;;;;19.48;12.55;;;;;;;;;;4954037;29;20089;-75
2021/07/21 02:34:54;;;;;;;18.42;12.10;;;;;;;;;;4953362;29;20135;-76
2021/07/21 02:37:21;;;;;;;20.65;11.55;;;;;;;;;;4954055;29;20082;-75
2021/07/21 02:39:50;;;;;;;20.73;12.35;;;;;;;;;;4953750;28;20492;-75
2021/07/21 02:42:18;;;;;;;17.00;11.52;;;;;;;;;;4953703;29;20090;-75
2021/07/21 02:44:46;;;;;;;21.92;13.23;;;;;;;;;;4953277;29;20084;-75
2021/07/21 02:47:13;;;;;;;19.90;11.65;;;;;;;;;;4953747;29;20082;-74
2021/07/21 02:49:41;;;;;;;18.48;12.40;;;;;;;;;;4953986;29;20085;-74
2021/07/21 02:52:19;;;;;;;19.50;12.98;;;;;;;;;;4953694;29;20047;-74
2021/07/21 02:54:53;;;;;;;19.92;13.30;;;;;;;;;;4953131;28;20571;-74
2021/07/21 02:57:25;;;;;;;17.75;12.32;;;;;;;;;;4953594;28;20102;-74
2021/07/21 02:59:54;;;;;;;20.15;13.23;;;;;;;;;;4953914;29;20079;-74
2021/07/21 03:02:26;;;;;;;19.13;13.05;;;;;;;;;;4953767;29;20089;-74
2021/07/21 03:04:56;;;;;;;19.65;12.07;;;;;;;;;;4953441;29;20058;-75
2021/07/21 03:07:25;;;;;;;22.88;12.70;;;;;;;;;;4953604;29;20058;-75
2021/07/21 03:09:53;;;;;;;17.50;11.32;;;;;;;;;;4953480;29;20585;-75
2021/07/21 03:12:22;;;;;;;19.80;12.27;;;;;;;;;;4953082;28;20577;-75
2021/07/21 03:14:52;;;;;;;18.85;13.10;;;;;;;;;;4956186;29;20078;-75
2021/07/21 03:17:19;;;;;;;18.87;12.47;;;;;;;;;;4957159;29;20424;-75
2021/07/21 03:19:49;;;;;;;20.20;12.00;;;;;;;;;;4958049;29;20289;-76
2021/07/21 03:22:20;;;;;;;19.58;12.30;;;;;;;;;;4957487;29;20083;-76
2021/07/21 03:24:49;;;;;;;21.42;13.57;;;;;;;;;;4958643;29;20074;-74
2021/07/21 03:27:16;;;;;;;21.90;12.88;;;;;;;;;;4962016;29;20094;-74
2021/07/21 03:29:46;;;;;;;19.63;13.07;;;;;;;;;;4962288;29;20086;-75
2021/07/21 03:32:13;;;;;;;21.27;13.18;;;;;;;;;;4958530;29;20505;-74
2021/07/21 03:34:41;;;;;;;24.80;15.23;;;;;;;;;;4956177;29;20085;-74
2021/07/21 03:37:10;;;;;;;23.77;16.00;;;;;;;;;;4957014;29;20086;-74
2021/07/21 03:39:39;;;;;;;20.08;13.10;;;;;;;;;;4957009;29;20051;-75
2021/07/21 03:42:08;;;;;;;25.73;16.05;;;;;;;;;;4956620;29;20084;-74
2021/07/21 03:44:36;;;;;;;19.80;12.73;;;;;;;;;;4956796;29;20082;-75
2021/07/21 03:47:03;;;;;;;21.88;12.63;;;;;;;;;;4956550;29;20094;-75
2021/07/21 03:49:31;;;;;;;20.45;13.13;;;;;;;;;;4956993;28;20126;-74
2021/07/21 03:51:58;;;;;;;17.85;12.30;;;;;;;;;;4956896;28;20048;-75
2021/07/21 03:54:26;;;;;;;19.00;13.68;;;;;;;;;;4956166;29;20569;-75
2021/07/21 03:56:53;;;;;;;18.58;12.07;;;;;;;;;;4955358;29;20051;-75
2021/07/21 03:59:23;;;;;;;18.38;11.85;;;;;;;;;;4956064;29;20043;-75
2021/07/21 04:01:52;;;;;;;18.77;12.00;;;;;;;;;;4956219;29;20500;-75
2021/07/21 04:04:20;;;;;;;18.60;11.98;;;;;;;;;;4956055;29;20086;-75
2021/07/21 04:06:47;;;;;;;19.02;12.27;;;;;;;;;;4955868;28;20094;-75
2021/07/21 04:09:17;;;;;;;21.15;13.13;;;;;;;;;;4956451;29;20098;-75
2021/07/21 04:11:45;;;;;;;19.73;12.50;;;;;;;;;;4956343;29;20077;-75
2021/07/21 04:14:14;;;;;;;18.00;11.80;;;;;;;;;;4955733;28;20090;-75
2021/07/21 04:16:43;;;;;;;18.98;11.82;;;;;;;;;;4955025;28;20057;-75
2021/07/21 04:19:13;;;;;;;20.25;12.02;;;;;;;;;;4955699;29;20520;-75
2021/07/21 04:21:42;;;;;;;20.52;12.30;;;;;;;;;;4955892;29;20460;-74
2021/07/21 04:24:11;;;;;;;19.45;12.27;;;;;;;;;;4955218;28;20094;-75
2021/07/21 04:26:40;;;;;;;25.92;13.57;;;;;;;;;;4954197;28;20055;-75
2021/07/21 04:29:08;;;;;;;21.02;12.70;;;;;;;;;;4955394;29;20539;-75
2021/07/21 04:31:37;;;;;;;21.15;12.93;;;;;;;;;;4955712;29;20138;-76
2021/07/21 04:34:06;;;;;;;23.35;12.85;;;;;;;;;;4955414;29;20121;-76
2021/07/21 04:36:35;;;;;;;20.77;13.38;;;;;;;;;;4954678;28;20055;-75
2021/07/21 04:39:03;;;;;;;19.58;12.75;;;;;;;;;;4955330;29;20507;-75
2021/07/21 04:41:30;;;;;;;20.55;13.57;;;;;;;;;;4955756;29;20102;-75
2021/07/21 04:43:57;;;;;;;20.58;11.95;;;;;;;;;;4955372;29;20047;-75
2021/07/21 04:46:25;;;;;;;20.05;12.43;;;;;;;;;;4954636;28;20051;-74
2021/07/21 04:48:52;;;;;;;19.27;12.32;;;;;;;;;;4955328;29;20134;-74
2021/07/21 04:51:23;;;;;;;21.73;12.95;;;;;;;;;;4955230;29;20684;-74
2021/07/21 04:53:55;;;;;;;19.65;13.45;;;;;;;;;;4955009;29;20489;-75
2021/07/21 04:56:21;;;;;;;24.05;13.40;;;;;;;;;;4954571;28;20133;-74
2021/07/21 04:58:48;;;;;;;17.80;11.73;;;;;;;;;;4954999;29;20082;-75
2021/07/21 05:01:16;;;;;;;20.02;12.35;;;;;;;;;;4955057;29;20086;-75
2021/07/21 05:03:43;;;;;;;22.42;13.65;;;;;;;;;;4955046;28;20130;-74
2021/07/21 05:06:10;;;;;;;19.25;12.15;;;;;;;;;;4954329;28;20047;-74
2021/07/21 05:08:38;;;;;;;17.50;11.07;;;;;;;;;;4955011;28;20114;-74
2021/07/21 05:11:05;;;;;;;21.00;12.18;;;;;;;;;;4955216;28;20071;-74
2021/07/21 05:13:32;;;;;;;21.13;11.15;;;;;;;;;;4954946;28;20485;-74
2021/07/21 05:15:59;;;;;;;21.60;12.02;;;;;;;;;;4954216;28;20078;-75
2021/07/21 05:18:26;;;;;;;19.90;13.23;;;;;;;;;;4954714;29;20051;-75
2021/07/21 05:20:53;;;;;;;20.33;12.20;;;;;;;;;;4954660;29;20078;-74
2021/07/21 05:23:19;;;;;;;21.95;12.82;;;;;;;;;;4954865;28;20082;-75
2021/07/21 05:25:47;;;;;;;20.02;12.77;;;;;;;;;;4953879;28;20082;-76
2021/07/21 05:28:14;;;;;;;19.13;12.27;;;;;;;;;;4954290;29;20106;-74
2021/07/21 05:30:41;;;;;;;20.15;13.82;;;;;;;;;;4954403;29;20047;-74
2021/07/21 05:33:07;;;;;;;24.13;14.45;;;;;;;;;;4954379;29;20098;-74
2021/07/21 05:35:34;;;;;;;21.63;14.80;;;;;;;;;;4954005;28;20079;-75
2021/07/21 05:38:02;;;;;;;24.27;13.85;;;;;;;;;;4954443;29;20055;-74
2021/07/21 05:40:29;;;;;;;20.55;12.75;;;;;;;;;;4954393;29;20075;-75
2021/07/21 05:42:57;;;;;;;20.50;12.55;;;;;;;;;;4954336;28;20488;-75
2021/07/21 05:45:24;;;;;;;20.52;13.35;;;;;;;;;;4953274;28;20082;-74
2021/07/21 05:47:51;;;;;;;23.27;14.18;;;;;;;;;;4954102;28;20456;-74
2021/07/21 05:50:18;;;;;;;21.75;13.77;;;;;;;;;;4954003;28;20106;-75
2021/07/21 05:52:44;;;;;;;25.77;13.43;;;;;;;;;;4954240;28;20135;-74
2021/07/21 05:55:12;;;;;;;24.02;13.90;;;;;;;;;;4953567;29;20082;-75
2021/07/21 05:57:39;;;;;;;23.17;13.38;;;;;;;;;;4954096;28;20086;-75
2021/07/21 06:00:09;;;;;;;21.60;14.27;;;;;;;;;;4954076;29;20094;-75
2021/07/21 06:02:35;;;;;;;22.00;12.88;;;;;;;;;;4934899;29;20082;-74
2021/07/21 06:05:02;;;;;;;21.13;11.93;;;;;;;;;;4933991;29;20056;-75
2021/07/21 06:07:29;;;;;;;20.60;11.90;;;;;;;;;;4934840;29;20517;-75
2021/07/21 06:09:55;;;;;;;20.40;12.82;;;;;;;;;;4935439;29;20470;-74
2021/07/21 06:12:22;;;;;;;17.60;11.70;;;;;;;;;;4934681;29;20052;-75
2021/07/21 06:14:49;;;;;;;19.02;11.55;;;;;;;;;;4934133;29;20083;-74
2021/07/21 06:17:17;;;;;;;20.13;12.23;;;;;;;;;;4934675;29;20107;-75
2021/07/21 06:19:44;;;;;;;23.40;12.88;;;;;;;;;;4935052;29;20079;-75
2021/07/21 06:22:11;;;;;;;29.25;19.92;;;;;;;;;;4935621;29;20079;-75
2021/07/21 06:24:39;;;;;;;20.15;14.10;;;;;;;;;;4934715;29;20048;-75
2021/07/21 06:27:06;;;;;;;20.25;12.55;;;;;;;;;;4935257;29;20505;-76
2021/07/21 06:29:33;;;;;;;21.50;12.85;;;;;;;;;;4934901;29;20048;-76
2021/07/21 06:31:59;;;;;;;23.83;12.35;;;;;;;;;;4935832;29;20051;-76
2021/07/21 06:34:28;;;;;;;18.60;11.82;;;;;;;;;;4935477;29;20408;-76
2021/07/21 06:36:54;;;;;;;20.25;12.35;;;;;;;;;;4934257;29;20504;-75
2021/07/21 06:39:21;;;;;;;19.05;12.57;;;;;;;;;;4935374;29;20047;-76
2021/07/21 06:41:48;;;;;;;20.45;12.90;;;;;;;;;;4935302;29;20485;-76
2021/07/21 06:44:14;;;;;;;21.27;12.77;;;;;;;;;;4937241;29;20052;-76
2021/07/21 06:46:41;;;;;;;22.52;14.73;;;;;;;;;;4939402;29;20568;-77
2021/07/21 06:49:08;;;;;;;19.17;13.48;;;;;;;;;;4941735;29;20047;-75
2021/07/21 06:51:36;;;;;;;19.70;11.88;;;;;;;;;;4945243;29;20071;-75
2021/07/21 06:54:03;;;;;;;22.83;13.63;;;;;;;;;;4941065;29;20115;-75
2021/07/21 06:56:30;;;;;;;21.33;12.95;;;;;;;;;;4940301;29;20090;-74
2021/07/21 06:58:57;;;;;;;21.27;13.57;;;;;;;;;;4939902;29;20091;-75
2021/07/21 07:01:23;;;;;;;24.48;14.68;;;;;;;;;;4943896;29;20109;-76
2021/07/21 07:03:50;;;;;;;23.45;15.63;;;;;;;;;;4956457;29;20055;-76
2021/07/21 07:06:17;;;;;;;20.50;12.93;;;;;;;;;;4955934;28;20576;-76
2021/07/21 07:08:45;;;;;;;21.92;13.18;;;;;;;;;;4956952;29;20078;-76
2021/07/21 07:11:12;;;;;;;22.48;13.38;;;;;;;;;;4956298;29;20158;-75
2021/07/21 07:13:39;;;;;;;22.08;12.65;;;;;;;;;;4956181;29;20089;-75
2021/07/21 07:16:06;;;;;;;21.05;11.52;;;;;;;;;;4955127;28;20509;-74
2021/07/21 07:18:32;;;;;;;20.15;12.20;;;;;;;;;;4955246;29;20086;-74
2021/07/21 07:20:59;;;;;;;25.55;12.93;;;;;;;;;;4955224;29;20047;-74
2021/07/21 07:23:26;;;;;;;24.85;12.55;;;;;;;;;;4955159;29;20086;-76
2021/07/21 07:25:55;;;;;;;21.63;12.93;;;;;;;;;;4954023;28;20199;-76
2021/07/21 07:28:22;;;;;;;20.00;11.95;;;;;;;;;;4954886;29;20055;-75
2021/07/21 07:30:48;;;;;;;18.08;12.13;;;;;;;;;;4954764;29;20105;-75
2021/07/21 07:33:15;;;;;;;20.88;11.57;;;;;;;;;;4954643;29;20125;-74
2021/07/21 07:35:42;;;;;;;20.85;11.82;;;;;;;;;;4953982;28;20054;-75
2021/07/21 07:38:11;;;;;;;17.60;10.75;;;;;;;;;;4954689;29;20078;-75
2021/07/21 07:40:38;;;;;;;20.88;11.65;;;;;;;;;;4955088;28;20054;-75
2021/07/21 07:43:07;;;;;;;17.05;9.88;;;;;;;;;;4954753;29;20078;-75
2021/07/21 07:45:34;;;;;;;17.50;11.13;;;;;;;;;;4953832;28;20137;-78
2021/07/21 07:48:01;;;;;;;14.93;10.15;;;;;;;;;;4958062;28;20155;-79
2021/07/21 07:50:28;;;;;;;20.30;10.15;;;;;;;;;;4957142;29;20074;-79
2021/07/21 07:52:54;;;;;;;15.15;9.25;;;;;;;;;;4955235;29;20079;-79
2021/07/21 07:55:21;;;;;;;16.50;9.48;;;;;;;;;;4954222;28;20102;-75
2021/07/21 07:57:48;;;;;;;13.77;8.70;;;;;;;;;;4954008;28;20044;-75
2021/07/21 08:00:18;;;;;;;15.23;9.73;;;;;;;;;;4954047;28;20134;-75
2021/07/21 08:02:45;;;;;;;15.68;9.10;;;;;;;;;;4953992;28;20051;-75
2021/07/21 08:05:13;;;;;;;14.38;9.05;;;;;;;;;;4953283;28;20082;-75
2021/07/21 08:07:39;;;;;;;14.27;9.32;;;;;;;;;;4954268;28;20106;-75
2021/07/21 08:10:11;;;;;;;15.48;9.70;;;;;;;;;;4954256;28;20043;-75
2021/07/21 08:12:38;;;;;;;16.10;9.13;;;;;;;;;;4954068;28;20069;-76
2021/07/21 08:15:06;;;;;;;15.68;9.55;;;;;;;;;;4953276;28;20082;-76
2021/07/21 08:17:34;;;;;;;14.93;9.10;;;;;;;;;;4953599;28;20086;-76
2021/07/21 08:20:00;;;;;;;15.80;9.52;;;;;;;;;;4953702;28;20074;-77
2021/07/21 08:22:27;;;;;;;13.90;9.68;;;;;;;;;;4953833;28;20200;-75
2021/07/21 08:24:54;;;;;;;16.15;10.27;;;;;;;;;;4953128;28;20464;-75
2021/07/21 08:27:20;;;;;;;15.63;8.93;;;;;;;;;;4953446;28;20078;-75
2021/07/21 08:29:47;;;;;;;15.38;9.70;;;;;;;;;;4953559;28;20517;-75
2021/07/21 08:32:14;;;;;;;15.73;10.07;;;;;;;;;;4953375;28;20508;-75
2021/07/21 08:34:42;;;;;;;15.48;9.95;;;;;;;;;;4952910;28;20051;-75
2021/07/21 08:37:10;;;;;;;15.55;9.77;;;;;;;;;;4953522;28;20457;-75
2021/07/21 08:39:37;;;;;;;14.90;10.35;;;;;;;;;;4953507;29;20055;-75
2021/07/21 08:42:05;;;;;;;16.08;9.25;;;;;;;;;;4953344;29;20090;-74
2021/07/21 08:44:32;;;;;;;15.38;9.23;;;;;;;;;;4953267;28;20492;-76
2021/07/21 08:46:59;;;;;;;14.32;9.82;;;;;;;;;;4953129;28;20047;-78
2021/07/21 08:49:26;;;;;;;16.27;9.00;;;;;;;;;;4952961;28;20093;-76
2021/07/21 08:51:55;;;;;;;14.50;9.65;;;;;;;;;;4953396;29;20086;-76
2021/07/21 08:54:23;;;;;;;15.18;9.32;;;;;;;;;;4953245;28;20087;-76
2021/07/21 08:56:50;;;;;;;16.35;9.20;;;;;;;;;;4952314;28;20082;-76
2021/07/21 08:59:17;;;;;;;15.02;9.02;;;;;;;;;;4953302;28;20147;-76
2021/07/21 09:01:44;;;;;;;16.00;8.85;;;;;;;;;;4952835;28;20106;-75
2021/07/21 09:04:11;;;;;;;14.90;9.00;;;;;;;;;;4953183;28;20114;-76
2021/07/21 09:06:39;;;;;;;16.67;9.57;;;;;;;;;;4952536;28;20067;-75
2021/07/21 09:09:07;;;;;;;14.13;10.70;;;;;;;;;;4953042;28;20484;-76
2021/07/21 09:11:34;;;;;;;16.05;9.70;;;;;;;;;;4952606;28;20047;-77
2021/07/21 09:14:01;;;;;;;16.17;9.25;;;;;;;;;;4952714;28;20057;-77
2021/07/21 09:16:28;;;;;;;15.65;9.13;;;;;;;;;;4951995;28;20047;-76
2021/07/21 09:18:57;;;;;;;13.43;8.82;;;;;;;;;;4953517;28;20114;-75
2021/07/21 09:21:24;;;;;;;17.08;10.32;;;;;;;;;;4953043;28;20404;-76
2021/07/21 09:23:53;;;;;;;16.02;10.10;;;;;;;;;;4953018;29;20125;-77
2021/07/21 09:26:34;;;;;;;15.07;9.95;;;;;;;;;;4952023;28;20536;-77
2021/07/21 09:29:01;;;;;;;14.85;9.38;;;;;;;;;;4952828;28;20145;-76
2021/07/21 09:31:31;;;;;;;14.18;9.18;;;;;;;;;;4952832;28;20047;-77
2021/07/21 09:33:58;;;;;;;14.38;8.77;;;;;;;;;;4952963;28;20074;-76
2021/07/21 09:36:25;;;;;;;14.88;9.05;;;;;;;;;;4952353;28;20067;-77
2021/07/21 09:39:01;;;;;;;13.30;9.20;;;;;;;;;;4952683;28;20089;-77
2021/07/21 09:41:29;;;;;;;15.65;9.00;;;;;;;;;;4952744;28;20058;-75
2021/07/21 09:44:01;;;;;;;14.45;9.50;;;;;;;;;;4952943;29;20051;-76
2021/07/21 09:46:27;;;;;;;13.25;9.68;;;;;;;;;;4951961;28;20074;-76
2021/07/21 09:48:57;;;;;;;14.93;9.63;;;;;;;;;;4952148;28;20087;-76
2021/07/21 09:51:30;;;;;;;14.30;8.82;;;;;;;;;;4952261;28;20087;-75
2021/07/21 09:54:11;;;;;;;16.52;10.20;;;;;;;;;;4952830;28;20051;-75
2021/07/21 09:56:39;;;;;;;13.40;9.32;;;;;;;;;;4951400;28;20513;-76
2021/07/21 09:59:20;;;;;;;14.77;9.00;;;;;;;;;;4952143;29;20505;-77
2021/07/21 10:01:47;;;;;;;14.80;9.40;;;;;;;;;;4951963;28;20458;-77
2021/07/21 10:04:16;;;;;;;16.38;9.65;;;;;;;;;;4952221;28;20118;-78
2021/07/21 10:06:44;;;;;;;15.90;9.73;;;;;;;;;;4952074;28;20047;-79
2021/07/21 10:09:11;;;;;;;15.27;9.55;;;;;;;;;;4954102;28;20051;-78
2021/07/21 10:11:41;;;;;;;14.00;9.20;;;;;;;;;;4959468;28;20094;-75
2021/07/21 10:14:13;;;;;;;13.98;9.93;;;;;;;;;;4964158;28;20058;-77
2021/07/21 10:16:43;;;;;;;14.98;10.45;;;;;;;;;;4960581;28;20047;-76
2021/07/21 10:19:12;;;;;;;14.02;9.57;;;;;;;;;;4963627;28;20053;-76
2021/07/21 10:21:41;;;;;;;17.63;9.93;;;;;;;;;;4952890;28;20051;-75
2021/07/21 10:24:09;;;;;;;15.30;10.23;;;;;;;;;;4959355;28;20054;-75
2021/07/21 10:26:37;;;;;;;15.07;9.85;;;;;;;;;;4956071;28;20051;-75
2021/07/21 10:29:06;;;;;;;15.23;9.55;;;;;;;;;;4957396;28;20547;-75
2021/07/21 10:31:34;;;;;;;15.75;11.05;;;;;;;;;;4957236;28;20145;-76
2021/07/21 10:34:01;;;;;;;14.90;10.45;;;;;;;;;;4957085;28;20051;-78
2021/07/21 10:36:28;;;;;;;15.63;11.00;;;;;;;;;;4962223;28;20102;-80
2021/07/21 10:38:55;;;;;;;18.50;11.20;;;;;;;;;;4964669;28;20098;-80
2021/07/21 10:41:22;;;;;;;19.67;11.85;;;;;;;;;;4961474;28;20489;-77
2021/07/21 10:43:52;;;;;;;17.52;10.60;;;;;;;;;;4965402;28;20055;-77
2021/07/21 10:46:40;;;;;;;16.27;12.00;;;;;;;;;;4963970;28;20109;-81
2021/07/21 10:49:18;;;;;;;18.52;11.13;;;;;;;;;;4965970;28;20047;-78
2021/07/21 11:00:09;;;;;;;30.83;17.83;;;;;;;;;;4955422;29;20054;-77
2021/07/21 11:02:37;;;;;;;16.38;10.50;;;;;;;;;;4936331;29;20056;-77
2021/07/21 11:05:05;;;;;;;17.85;10.55;;;;;;;;;;4935387;29;20056;-77
2021/07/21 11:07:50;;;;;;;18.00;11.75;;;;;;;;;;4935962;29;20061;-76
2021/07/21 11:10:30;;;;;;;18.35;11.10;;;;;;;;;;4935686;29;20611;-76
2021/07/21 11:12:57;;;;;;;16.67;10.80;;;;;;;;;;4950547;29;20473;-75
2021/07/21 11:15:35;;;;;;;15.82;10.40;;;;;;;;;;4954855;28;20107;-76
2021/07/21 11:18:52;;;;;;;17.08;11.55;;;;;;;;;;4955044;29;20465;-77
2021/07/21 11:21:21;;;;;;;17.08;10.90;;;;;;;;;;4954543;29;20401;-76
2021/07/21 11:23:59;;;;;;;15.45;10.80;;;;;;;;;;4955569;29;20140;-76
2021/07/21 11:26:47;;;;;;;17.23;10.68;;;;;;;;;;4954275;29;20420;-75
2021/07/21 11:29:46;;;;;;;17.70;11.23;;;;;;;;;;4954877;29;20110;-75
2021/07/21 11:32:27;;;;;;;17.35;12.10;;;;;;;;;;4956199;29;20067;-76
2021/07/21 11:34:54;;;;;;;17.33;11.50;;;;;;;;;;4954115;28;20091;-76
2021/07/21 11:37:29;;;;;;;15.15;10.82;;;;;;;;;;4954921;29;20130;-76
2021/07/21 11:39:58;;;;;;;17.08;10.93;;;;;;;;;;4955171;29;20102;-77
2021/07/21 11:42:34;;;;;;;19.40;12.00;;;;;;;;;;4954459;29;20050;-76
2021/07/21 11:45:19;;;;;;;16.20;10.18;;;;;;;;;;4954139;29;20106;-77
2021/07/21 11:47:49;;;;;;;14.98;10.30;;;;;;;;;;4955004;29;20054;-76
2021/07/21 11:50:18;;;;;;;16.02;11.10;;;;;;;;;;4954621;29;20063;-76
2021/07/21 11:52:51;;;;;;;17.48;11.30;;;;;;;;;;4956964;29;20051;-77
2021/07/21 11:55:18;;;;;;;14.18;10.60;;;;;;;;;;4956202;29;20118;-76
2021/07/21 11:57:46;;;;;;;16.77;11.57;;;;;;;;;;4956302;29;20082;-77
2021/07/21 12:00:14;;;;;;;17.10;11.45;;;;;;;;;;4956291;29;20047;-76
2021/07/21 12:02:40;;;;;;;15.88;11.15;;;;;;;;;;4956332;29;20671;-76
2021/07/21 12:05:09;;;;;;;17.58;13.75;;;;;;;;;;4955882;29;20110;-76
2021/07/21 12:07:38;;;;;;;16.65;11.05;;;;;;;;;;4954933;29;20527;-76
2021/07/21 12:10:11;;;;;;;18.35;11.85;;;;;;;;;;4956958;28;20051;-76
2021/07/21 12:12:39;;;;;;;15.00;11.45;;;;;;;;;;4957278;29;20670;-76
2021/07/21 12:15:08;;;;;;;14.60;10.93;;;;;;;;;;4954895;29;20673;-76
2021/07/21 12:17:35;;;;;;;13.77;10.52;;;;;;;;;;4957301;29;20106;-77
2021/07/21 12:20:05;;;;;;;15.68;10.90;;;;;;;;;;4956238;29;20051;-76
2021/07/21 12:22:34;;;;;;;14.00;10.52;;;;;;;;;;4955544;29;20044;-76
2021/07/21 12:25:05;;;;;;;16.83;11.75;;;;;;;;;;4955319;29;20497;-76
2021/07/21 12:27:38;;;;;;;16.52;10.80;;;;;;;;;;4955221;29;20500;-78
2021/07/21 12:30:07;;;;;;;14.75;10.45;;;;;;;;;;4954630;29;20059;-75
2021/07/21 12:32:38;;;;;;;21.52;16.40;;;;;;;;;;4955091;28;20109;-75
2021/07/21 12:35:08;;;;;;;14.85;9.88;;;;;;;;;;4954174;28;20575;-76
2021/07/21 12:37:40;;;;;;;16.05;10.57;;;;;;;;;;4954422;28;20051;-77
2021/07/21 12:40:09;;;;;;;14.52;10.38;;;;;;;;;;4954297;28;20419;-75
2021/07/21 12:42:38;;;;;;;13.63;9.70;;;;;;;;;;4953972;29;20059;-77
2021/07/21 12:45:10;;;;;;;15.38;10.98;;;;;;;;;;4953567;28;20139;-74
2021/07/21 12:47:39;;;;;;;13.77;9.85;;;;;;;;;;4953165;29;20059;-77
2021/07/21 12:52:53;;;;;;;14.80;10.82;;;;;;;;;;4953849;29;20680;-75
2021/07/21 12:55:32;;;;;;;15.30;11.05;;;;;;;;;;4952767;29;20575;-75
2021/07/21 12:58:01;;;;;;;13.27;9.70;;;;;;;;;;4966157;23;20209;-80
2021/07/21 13:00:29;;;;;;;15.43;10.45;;;;;;;;;;4956019;29;20051;-78
2021/07/21 13:02:58;;;;;;;15.52;10.90;;;;;;;;;;4958933;28;20119;-79
2021/07/21 13:05:31;;;;;;;16.00;11.70;;;;;;;;;;4957322;28;20055;-77
2021/07/21 13:07:59;;;;;;;18.30;10.02;;;;;;;;;;4954430;28;20055;-77
2021/07/21 13:10:27;;;;;;;13.07;9.65;;;;;;;;;;4953706;28;20051;-77
2021/07/21 13:12:54;;;;;;;13.45;9.93;;;;;;;;;;4953814;28;20074;-77
2021/07/21 13:15:27;;;;;;;15.80;10.55;;;;;;;;;;4953340;28;20515;-77
2021/07/21 13:18:06;;;;;;;14.98;10.60;;;;;;;;;;4953279;28;20394;-77
2021/07/21 13:20:36;;;;;;;14.45;11.48;;;;;;;;;;4954828;29;20047;-77
2021/07/21 13:23:13;;;;;;;15.80;10.88;;;;;;;;;;4953623;29;20135;-75
2021/07/21 13:25:40;;;;;;;13.40;9.93;;;;;;;;;;4953162;29;20098;-76
2021/07/21 13:28:28;;;;;;;15.05;10.82;;;;;;;;;;4953016;28;20508;-77
2021/07/21 13:31:11;;;;;;;13.68;10.23;;;;;;;;;;4953500;28;20110;-76
2021/07/21 13:33:38;;;;;;;15.27;10.25;;;;;;;;;;4953098;29;20106;-76
2021/07/21 13:36:06;;;;;;;13.38;10.32;;;;;;;;;;4952594;28;20051;-77
2021/07/21 13:38:33;;;;;;;13.23;9.48;;;;;;;;;;4953056;28;20043;-75
2021/07/21 13:41:03;;;;;;;14.25;10.77;;;;;;;;;;4952810;28;20552;-76
2021/07/21 13:43:31;;;;;;;15.30;10.50;;;;;;;;;;4952828;29;20048;-76
2021/07/21 13:45:59;;;;;;;14.85;10.10;;;;;;;;;;4951991;29;20452;-77
2021/07/21 13:48:30;;;;;;;13.82;10.27;;;;;;;;;;4952612;28;20051;-77
2021/07/21 13:51:13;;;;;;;13.85;10.32;;;;;;;;;;4954443;28;20118;-76
2021/07/21 13:53:40;;;;;;;14.05;10.20;;;;;;;;;;4954332;28;20051;-77
2021/07/21 13:56:08;;;;;;;14.18;9.75;;;;;;;;;;4951918;29;20055;-77
2021/07/21 13:58:35;;;;;;;13.02;9.75;;;;;;;;;;4952206;28;20044;-76
2021/07/21 14:01:05;;;;;;;14.45;10.52;;;;;;;;;;4952740;28;20051;-77
2021/07/21 14:03:32;;;;;;;14.43;10.02;;;;;;;;;;4953201;29;20133;-75
2021/07/21 14:05:59;;;;;;;15.05;9.98;;;;;;;;;;4951925;28;20051;-77
2021/07/21 14:08:26;;;;;;;14.18;10.48;;;;;;;;;;4952459;28;20548;-76
2021/07/21 14:10:53;;;;;;;13.45;10.27;;;;;;;;;;4952838;29;20098;-77
2021/07/21 14:13:19;;;;;;;14.85;10.05;;;;;;;;;;4952427;29;20075;-77
2021/07/21 14:15:46;;;;;;;13.63;10.38;;;;;;;;;;4952008;29;20043;-76
2021/07/21 14:18:14;;;;;;;13.68;9.88;;;;;;;;;;4951941;28;20418;-77
2021/07/21 14:20:41;;;;;;;12.07;9.50;;;;;;;;;;4952782;29;20476;-76
2021/07/21 14:23:10;;;;;;;13.20;10.25;;;;;;;;;;4952880;29;20051;-77
2021/07/21 14:25:37;;;;;;;12.25;9.93;;;;;;;;;;4951880;29;20096;-76
2021/07/21 14:28:04;;;;;;;13.88;10.30;;;;;;;;;;4953004;29;20129;-75
2021/07/21 14:30:33;;;;;;;13.05;10.30;;;;;;;;;;4952364;29;20078;-77
2021/07/21 14:32:59;;;;;;;15.15;10.63;;;;;;;;;;4952590;29;20703;-77
2021/07/21 14:35:33;;;;;;;14.43;10.00;;;;;;;;;;4952643;29;20051;-76
2021/07/21 14:38:00;;;;;;;13.73;10.15;;;;;;;;;;4953103;29;20134;-77
2021/07/21 14:40:26;;;;;;;12.85;9.57;;;;;;;;;;4952652;29;20055;-77
2021/07/21 14:42:53;;;;;;;12.60;10.45;;;;;;;;;;4952797;29;20047;-77
2021/07/21 14:45:20;;;;;;;14.88;10.73;;;;;;;;;;4951856;28;20489;-77